Time;durP1;ratioP1;P1;durP2;ratioP2;P2;SDS_P1;SDS_P2;PMS_P1;PMS_P2;Temp;Humidity;BMP_temperature;BMP_pressure;BME280_temperature;BME280_humidity;BME280_pressure;Samples;Min_cycle;Max_cycle;Signal;HPM_P1;HPM_P2
2022/05/14 00:01:02;;;;;;;;;;;;;;;10.95;71.09;99559.63;5051812;28;794;-54
2022/05/14 00:03:29;;;;;;;;;;;;;;;10.80;72.04;99558.19;5051605;28;1878;-51
2022/05/14 00:05:58;;;;;;;;;;;;;;;10.74;73.29;99557.06;5051637;28;1043;-55
2022/05/14 00:08:26;;;;;;;;;;;;;;;10.72;73.73;99551.94;5051710;28;802;-54
2022/05/14 00:13:38;;;;;;;;;;;;;;;10.83;74.04;99538.78;5051559;28;680;-54
2022/05/14 00:16:06;;;;;;;;;;;;;;;10.89;73.58;99550.19;5051499;28;890;-53
2022/05/14 00:18:33;;;;;;;;;;;;;;;10.86;73.40;99550.22;5051469;28;898;-54
2022/05/14 00:21:00;;;;;;;;;;;;;;;10.74;73.80;99544.03;5051526;28;802;-52
2022/05/14 00:23:27;;;;;;;;;;;;;;;10.64;74.02;99536.63;5051344;28;1945;-52
2022/05/14 00:25:54;;;;;;;;;;;;;;;10.53;74.20;99533.94;5051708;28;1102;-52
2022/05/14 00:28:20;;;;;;;;;;;;;;;10.41;74.57;99524.19;5051474;28;878;-51
2022/05/14 00:30:48;;;;;;;;;;;;;;;10.28;74.82;99528.59;5051287;28;934;-51
2022/05/14 00:33:14;;;;;;;;;;;;;;;10.14;75.37;99525.97;5051404;28;885;-51
2022/05/14 00:35:41;;;;;;;;;;;;;;;10.06;75.80;99521.69;5051364;28;834;-52
2022/05/14 00:38:09;;;;;;;;;;;;;;;9.93;76.12;99529.66;5051163;28;1722;-54
2022/05/14 00:40:38;;;;;;;;;;;;;;;9.86;76.73;99519.47;5051365;28;811;-54
2022/05/14 00:43:05;;;;;;;;;;;;;;;9.82;77.25;99524.22;5051293;28;1910;-53
2022/05/14 00:45:34;;;;;;;;;;;;;;;9.79;77.77;99519.50;5051425;28;803;-52
2022/05/14 00:48:02;;;;;;;;;;;;;;;9.81;77.65;99514.34;5051477;28;1037;-54
2022/05/14 00:50:35;;;;;;;;;;;;;;;9.82;77.39;99516.72;5051664;28;901;-55
2022/05/14 00:53:05;;;;;;;;;;;;;;;9.82;77.54;99513.19;5051183;28;838;-53
2022/05/14 00:55:31;;;;;;;;;;;;;;;9.74;77.96;99517.94;5051210;28;806;-52
2022/05/14 00:58:00;;;;;;;;;;;;;;;9.69;78.65;99521.16;5051148;28;875;-54
2022/05/14 01:00:26;;;;;;;;;;;;;;;9.68;79.30;99516.03;5051117;28;916;-55
2022/05/14 01:02:53;;;;;;;;;;;;;;;9.73;79.27;99521.09;5051383;28;1890;-54
2022/05/14 01:05:21;;;;;;;;;;;;;;;9.76;79.26;99520.31;5055228;28;869;-52
2022/05/14 01:07:49;;;;;;;;;;;;;;;9.79;79.42;99517.53;5054979;28;894;-54
2022/05/14 01:10:18;;;;;;;;;;;;;;;9.84;79.42;99515.53;5054785;28;855;-52
2022/05/14 01:12:48;;;;;;;;;;;;;;;9.89;79.51;99509.59;5054756;28;898;-54
2022/05/14 01:15:18;;;;;;;;;;;;;;;9.95;79.20;99508.75;5054913;28;897;-54
2022/05/14 01:17:44;;;;;;;;;;;;;;;10.05;78.95;99498.03;5055370;28;767;-53
2022/05/14 01:20:12;;;;;;;;;;;;;;;10.24;78.30;99505.75;5054815;28;889;-55
2022/05/14 01:22:38;;;;;;;;;;;;;;;10.45;77.51;99498.50;5055230;28;1995;-55
2022/05/14 01:27:55;;;;;;;;;;;;;;;10.62;76.28;99503.06;5055203;28;1001;-53
2022/05/14 01:30:22;;;;;;;;;;;;;;;10.61;76.16;99496.00;5054867;28;858;-54
2022/05/14 01:33:04;;;;;;;;;;;;;;;10.57;75.88;99489.72;5054875;28;858;-54
2022/05/14 01:35:36;;;;;;;;;;;;;;;10.54;76.00;99485.78;5054426;28;1052;-53
2022/05/14 01:38:02;;;;;;;;;;;;;;;10.46;75.93;99478.00;5054634;28;1427;-53
2022/05/14 01:40:29;;;;;;;;;;;;;;;10.28;75.94;99484.41;5054337;28;854;-53
2022/05/14 01:42:56;;;;;;;;;;;;;;;10.02;76.57;99483.06;5054215;28;1973;-52
2022/05/14 01:45:22;;;;;;;;;;;;;;;9.77;77.29;99481.28;5054280;28;807;-54
2022/05/14 01:47:49;;;;;;;;;;;;;;;9.56;78.07;99489.69;5054254;28;775;-54
2022/05/14 01:50:15;;;;;;;;;;;;;;;9.39;79.41;99494.91;5054471;28;802;-56
2022/05/14 01:52:42;;;;;;;;;;;;;;;9.38;80.20;99490.56;5054223;28;905;-55
2022/05/14 01:55:09;;;;;;;;;;;;;;;9.38;80.57;99493.31;5054154;28;882;-55
2022/05/14 01:57:35;;;;;;;;;;;;;;;9.36;80.97;99489.38;5054058;28;885;-54
2022/05/14 02:00:04;;;;;;;;;;;;;;;9.30;80.98;99485.47;5054047;28;834;-54
2022/05/14 02:02:31;;;;;;;;;;;;;;;9.32;82.17;99491.38;5054131;28;1886;-55
2022/05/14 02:04:58;;;;;;;;;;;;;;;9.42;81.71;99485.03;5053938;28;842;-54
2022/05/14 02:07:24;;;;;;;;;;;;;;;9.42;81.89;99489.75;5053830;28;886;-55
2022/05/14 02:09:50;;;;;;;;;;;;;;;9.48;82.06;99488.16;5053938;28;814;-55
2022/05/14 02:12:16;;;;;;;;;;;;;;;9.53;82.03;99487.72;5053692;28;839;-54
2022/05/14 02:14:45;;;;;;;;;;;;;;;9.61;81.45;99487.28;5053338;28;858;-56
2022/05/14 02:17:13;;;;;;;;;;;;;;;9.74;80.98;99492.31;5053694;28;894;-56
2022/05/14 02:19:39;;;;;;;;;;;;;;;9.81;80.60;99478.47;5053658;28;827;-55
2022/05/14 02:22:06;;;;;;;;;;;;;;;9.85;80.13;99484.75;5053744;28;1886;-54
2022/05/14 02:24:34;;;;;;;;;;;;;;;9.92;80.11;99487.47;5053567;28;885;-55
2022/05/14 02:27:01;;;;;;;;;;;;;;;9.97;79.93;99484.28;5053926;28;1031;-55
2022/05/14 02:29:50;;;;;;;;;;;;;;;9.97;79.60;99481.50;5053544;28;909;-54
2022/05/14 02:32:14;;;;;;;;;;;;;;;9.96;79.63;99484.66;5053189;28;1765;-56
2022/05/14 02:34:41;;;;;;;;;;;;;;;9.88;80.21;99483.16;5053456;28;873;-55
2022/05/14 02:37:08;;;;;;;;;;;;;;;9.86;80.09;99478.06;5053121;28;1251;-55
2022/05/14 02:39:34;;;;;;;;;;;;;;;9.84;79.88;99466.63;5053323;28;861;-54
2022/05/14 02:42:00;;;;;;;;;;;;;;;9.73;79.97;99471.44;5053140;28;859;-53
2022/05/14 02:44:27;;;;;;;;;;;;;;;9.62;80.65;99479.78;5053214;28;889;-55
2022/05/14 02:46:54;;;;;;;;;;;;;;;9.54;80.86;99487.31;5053203;28;874;-56
2022/05/14 02:49:21;;;;;;;;;;;;;;;9.63;80.76;99489.63;5053097;28;852;-55
2022/05/14 02:51:48;;;;;;;;;;;;;;;9.68;80.72;99488.41;5053025;28;855;-52
2022/05/14 02:54:14;;;;;;;;;;;;;;;9.70;80.75;99494.31;5053037;28;865;-56
2022/05/14 02:56:41;;;;;;;;;;;;;;;9.67;81.12;99489.63;5052935;28;910;-54
2022/05/14 02:59:08;;;;;;;;;;;;;;;9.69;81.31;99477.00;5053209;28;846;-55
2022/05/14 03:01:36;;;;;;;;;;;;;;;9.75;81.17;99482.84;5052790;28;910;-54
2022/05/14 03:04:04;;;;;;;;;;;;;;;9.89;80.91;99481.97;5052709;28;1953;-55
2022/05/14 03:06:30;;;;;;;;;;;;;;;10.06;80.22;99477.50;5052690;28;905;-56
2022/05/14 03:08:57;;;;;;;;;;;;;;;10.22;79.53;99477.78;5052739;28;798;-54
2022/05/14 03:11:27;;;;;;;;;;;;;;;10.35;78.69;99473.34;5052585;28;872;-56
2022/05/14 03:13:54;;;;;;;;;;;;;;;10.47;78.14;99480.31;5034873;28;1396;-54
2022/05/14 03:16:21;;;;;;;;;;;;;;;10.48;77.91;99490.19;5052598;28;814;-55
2022/05/14 03:18:48;;;;;;;;;;;;;;;10.44;77.80;99483.13;5052579;28;893;-53
2022/05/14 03:21:14;;;;;;;;;;;;;;;10.42;77.98;99484.31;5052494;28;822;-54
2022/05/14 03:23:49;;;;;;;;;;;;;;;10.41;77.95;99491.06;5052408;28;1906;-54
2022/05/14 03:26:16;;;;;;;;;;;;;;;10.41;78.05;99487.47;5051680;28;905;-55
2022/05/14 03:28:44;;;;;;;;;;;;;;;10.34;78.04;99485.56;5052508;28;810;-54
2022/05/14 03:31:11;;;;;;;;;;;;;;;10.28;78.52;99483.63;5052329;28;854;-54
2022/05/14 03:33:37;;;;;;;;;;;;;;;10.29;78.67;99483.25;5052352;28;857;-55
2022/05/14 03:36:04;;;;;;;;;;;;;;;10.32;78.70;99481.66;5052282;28;884;-56
2022/05/14 03:38:30;;;;;;;;;;;;;;;10.39;78.47;99490.66;5052022;28;1276;-55
2022/05/14 03:40:57;;;;;;;;;;;;;;;10.48;78.30;99492.19;5052083;28;833;-55
2022/05/14 03:43:22;;;;;;;;;;;;;;;10.52;78.27;99484.63;5052149;28;1965;-54
2022/05/14 03:45:49;;;;;;;;;;;;;;;10.52;78.24;99487.38;5052216;28;846;-55
2022/05/14 03:48:16;;;;;;;;;;;;;;;10.58;78.34;99491.28;5052311;28;842;-55
2022/05/14 03:50:43;;;;;;;;;;;;;;;10.67;78.39;99496.31;5052226;28;810;-56
2022/05/14 03:53:10;;;;;;;;;;;;;;;10.73;77.98;99497.44;5052147;28;1147;-53
2022/05/14 03:55:37;;;;;;;;;;;;;;;10.80;77.78;99503.69;5052165;28;866;-55
2022/05/14 03:58:04;;;;;;;;;;;;;;;10.99;77.25;99504.28;5051994;28;882;-55
2022/05/14 04:00:30;;;;;;;;;;;;;;;11.27;76.14;99505.16;5052237;28;912;-52
2022/05/14 04:02:57;;;;;;;;;;;;;;;11.44;75.61;99515.19;5051786;28;2319;-54
2022/05/14 04:05:24;;;;;;;;;;;;;;;11.53;75.10;99509.94;5034502;28;788;-55
2022/05/14 04:07:50;;;;;;;;;;;;;;;11.59;74.81;99513.03;5051964;28;1040;-55
2022/05/14 04:10:17;;;;;;;;;;;;;;;11.63;74.51;99520.06;5052021;28;930;-56
2022/05/14 04:12:44;;;;;;;;;;;;;;;11.66;74.23;99512.91;5051573;28;993;-55
2022/05/14 04:15:12;;;;;;;;;;;;;;;11.71;74.22;99517.97;5051513;28;874;-55
2022/05/14 04:17:39;;;;;;;;;;;;;;;11.76;74.11;99523.06;5052491;28;815;-56
2022/05/14 04:20:05;;;;;;;;;;;;;;;11.88;73.84;99523.69;5051518;28;807;-54
2022/05/14 04:22:32;;;;;;;;;;;;;;;12.01;73.15;99525.50;5051370;28;1937;-56
2022/05/14 04:24:59;;;;;;;;;;;;;;;12.20;72.96;99520.44;5051416;28;925;-52
2022/05/14 04:27:26;;;;;;;;;;;;;;;12.38;71.49;99525.72;5051742;28;938;-55
2022/05/14 04:29:53;;;;;;;;;;;;;;;12.55;71.73;99523.84;5051451;28;810;-55
2022/05/14 04:32:20;;;;;;;;;;;;;;;12.77;71.44;99525.00;5051344;28;882;-55
2022/05/14 04:34:46;;;;;;;;;;;;;;;12.97;70.04;99519.50;5051446;28;877;-55
2022/05/14 04:37:13;;;;;;;;;;;;;;;13.05;69.57;99520.91;5052037;28;1214;-54
2022/05/14 04:39:40;;;;;;;;;;;;;;;13.17;69.98;99527.81;5055660;28;877;-55
2022/05/14 04:42:09;;;;;;;;;;;;;;;13.30;69.06;99535.53;5037726;28;1902;-54
2022/05/14 04:44:37;;;;;;;;;;;;;;;13.40;68.99;99535.31;5055547;28;827;-54
2022/05/14 04:47:04;;;;;;;;;;;;;;;13.64;68.73;99530.44;5055856;28;897;-55
2022/05/14 04:49:31;;;;;;;;;;;;;;;14.05;67.56;99526.34;5037733;28;2188;-55
2022/05/14 04:51:58;;;;;;;;;;;;;;;14.49;66.80;99523.31;5055661;28;826;-56
2022/05/14 04:54:24;;;;;;;;;;;;;;;14.81;67.25;99525.28;5055671;28;823;-55
2022/05/14 04:56:51;;;;;;;;;;;;;;;15.14;67.14;99525.19;5055942;28;822;-55
2022/05/14 04:59:18;;;;;;;;;;;;;;;15.47;66.07;99527.84;5055500;28;771;-56
2022/05/14 05:04:32;;;;;;;;;;;;;;;15.95;65.64;99534.38;5055063;28;1945;-51
2022/05/14 05:06:57;;;;;;;;;;;;;;;16.08;65.67;99526.78;5055088;28;805;-52
2022/05/14 05:09:25;;;;;;;;;;;;;;;16.30;65.24;99535.25;5055123;28;818;-56
2022/05/14 05:11:52;;;;;;;;;;;;;;;16.54;62.74;99535.66;5055018;28;818;-56
2022/05/14 05:14:18;;;;;;;;;;;;;;;16.91;61.21;99547.19;5054964;28;885;-55
2022/05/14 05:16:45;;;;;;;;;;;;;;;17.21;57.71;99542.13;5054875;28;1067;-55
2022/05/14 05:19:11;;;;;;;;;;;;;;;17.47;57.84;99536.41;5054828;28;907;-55
2022/05/14 05:21:39;;;;;;;;;;;;;;;17.84;56.07;99553.44;5054815;28;846;-54
2022/05/14 05:24:06;;;;;;;;;;;;;;;18.26;53.88;99550.16;5054797;28;1951;-55
2022/05/14 05:26:33;;;;;;;;;;;;;;;18.62;52.25;99543.88;5054768;28;1079;-56
2022/05/14 05:29:00;;;;;;;;;;;;;;;18.88;52.49;99554.81;5054566;28;834;-55
2022/05/14 05:31:27;;;;;;;;;;;;;;;19.39;51.82;99551.38;5054530;28;839;-55
2022/05/14 05:33:53;;;;;;;;;;;;;;;20.03;49.26;99544.81;5054575;28;850;-56
2022/05/14 05:36:20;;;;;;;;;;;;;;;20.75;46.12;99544.16;5054444;28;914;-56
2022/05/14 05:38:47;;;;;;;;;;;;;;;22.22;44.59;99541.91;5054150;28;1387;-56
2022/05/14 05:41:14;;;;;;;;;;;;;;;23.64;42.33;99539.50;5054457;28;803;-56
2022/05/14 05:43:41;;;;;;;;;;;;;;;25.18;40.30;99542.75;5054266;28;1918;-56
2022/05/14 05:46:08;;;;;;;;;;;;;;;26.46;38.43;99534.81;5036560;28;866;-56
2022/05/14 05:48:34;;;;;;;;;;;;;;;27.49;36.00;99537.41;5053592;28;799;-55
2022/05/14 05:51:00;;;;;;;;;;;;;;;28.19;34.72;99539.94;5054083;28;838;-57
2022/05/14 05:58:57;;;;;;;;;;;;;;;27.89;34.81;99546.44;5054418;28;616;-55
2022/05/14 06:01:24;;;;;;;;;;;;;;;28.14;34.71;99545.69;5053924;28;854;-56
2022/05/14 06:03:51;;;;;;;;;;;;;;;28.88;33.12;99554.97;5053962;28;1945;-56
2022/05/14 06:06:19;;;;;;;;;;;;;;;28.73;32.34;99548.97;5053993;28;826;-56
2022/05/14 06:08:47;;;;;;;;;;;;;;;28.70;32.97;99550.81;5053928;28;823;-56
2022/05/14 06:11:15;;;;;;;;;;;;;;;28.98;32.88;99544.75;5053727;28;847;-56
2022/05/14 06:13:43;;;;;;;;;;;;;;;29.21;32.56;99541.59;5053878;28;818;-56
2022/05/14 06:16:13;;;;;;;;;;;;;;;28.99;31.48;99548.34;5053965;28;942;-56
2022/05/14 06:18:42;;;;;;;;;;;;;;;28.48;32.86;99554.63;5035777;28;1356;-57
2022/05/14 06:21:09;;;;;;;;;;;;;;;29.36;31.81;99555.38;5053927;28;905;-57
2022/05/14 06:23:36;;;;;;;;;;;;;;;29.63;30.99;99551.31;5053552;28;1886;-56
2022/05/14 06:26:03;;;;;;;;;;;;;;;29.29;30.36;99551.06;5053683;28;918;-57
2022/05/14 06:28:30;;;;;;;;;;;;;;;28.94;31.07;99546.38;5053405;28;914;-55
2022/05/14 06:30:58;;;;;;;;;;;;;;;28.40;30.04;99545.16;5053509;28;814;-57
2022/05/14 06:33:25;;;;;;;;;;;;;;;28.26;31.08;99545.03;5053634;28;819;-55
2022/05/14 06:35:53;;;;;;;;;;;;;;;28.50;30.49;99541.44;5053334;28;858;-56
2022/05/14 06:38:20;;;;;;;;;;;;;;;28.24;31.05;99546.88;5052944;28;1349;-56
2022/05/14 06:40:46;;;;;;;;;;;;;;;27.77;32.10;99544.19;5053292;28;838;-55
2022/05/14 06:43:16;;;;;;;;;;;;;;;27.49;32.20;99548.75;5053214;28;1965;-54
2022/05/14 06:45:43;;;;;;;;;;;;;;;27.27;33.46;99548.94;5036214;28;882;-57
2022/05/14 06:48:10;;;;;;;;;;;;;;;27.57;33.48;99548.19;5053962;28;827;-56
2022/05/14 06:50:43;;;;;;;;;;;;;;;27.95;33.28;99546.34;5053252;28;922;-53
2022/05/14 06:53:10;;;;;;;;;;;;;;;28.13;32.28;99553.44;5053160;28;894;-55
2022/05/14 06:55:39;;;;;;;;;;;;;;;27.83;31.60;99547.75;5053039;28;874;-56
2022/05/14 06:58:08;;;;;;;;;;;;;;;26.93;34.12;99560.41;5052936;28;1167;-57
2022/05/14 07:00:35;;;;;;;;;;;;;;;25.89;35.24;99544.69;5052965;28;782;-56
2022/05/14 07:08:33;;;;;;;;;;;;;;;25.17;37.69;99544.03;5053113;28;640;-56
2022/05/14 07:10:59;;;;;;;;;;;;;;;26.54;36.68;99552.78;5052832;28;893;-56
2022/05/14 07:13:27;;;;;;;;;;;;;;;27.11;34.64;99544.09;5052710;28;830;-55
2022/05/14 07:15:54;;;;;;;;;;;;;;;27.98;34.27;99545.31;5052621;28;954;-56
2022/05/14 07:18:21;;;;;;;;;;;;;;;29.19;32.46;99532.84;5052628;28;854;-55
2022/05/14 07:20:49;;;;;;;;;;;;;;;29.92;30.94;99532.50;5052613;28;810;-56
2022/05/14 07:23:15;;;;;;;;;;;;;;;30.33;32.16;99539.81;5052383;28;1943;-55
2022/05/14 07:25:43;;;;;;;;;;;;;;;30.01;31.27;99539.09;5052400;28;1100;-55
2022/05/14 07:28:10;;;;;;;;;;;;;;;28.86;32.95;99544.13;5052410;28;889;-57
2022/05/14 07:30:36;;;;;;;;;;;;;;;28.14;34.25;99552.13;5052399;28;818;-57
2022/05/14 07:33:02;;;;;;;;;;;;;;;27.70;35.45;99542.69;5052410;28;810;-56
2022/05/14 07:35:29;;;;;;;;;;;;;;;27.99;34.80;99549.69;5052161;28;870;-57
2022/05/14 07:37:58;;;;;;;;;;;;;;;28.77;32.71;99535.97;5052038;28;1298;-56
2022/05/14 07:40:27;;;;;;;;;;;;;;;29.49;33.29;99539.13;5034401;28;930;-55
2022/05/14 07:42:57;;;;;;;;;;;;;;;29.31;34.13;99531.38;5052124;28;1906;-55
2022/05/14 07:45:27;;;;;;;;;;;;;;;28.94;34.26;99538.59;5052028;28;842;-56
2022/05/14 07:47:55;;;;;;;;;;;;;;;29.28;32.18;99544.63;5051998;28;935;-57
2022/05/14 07:50:22;;;;;;;;;;;;;;;29.55;32.28;99543.97;5051951;28;922;-56
2022/05/14 07:52:51;;;;;;;;;;;;;;;29.42;31.91;99542.59;5051896;28;992;-56
2022/05/14 07:55:19;;;;;;;;;;;;;;;29.06;33.65;99545.69;5051866;28;1114;-56
2022/05/14 07:57:46;;;;;;;;;;;;;;;28.85;33.91;99553.22;5052141;28;822;-56
2022/05/14 08:00:13;;;;;;;;;;;;;;;28.38;34.49;99554.22;5052139;28;831;-56
2022/05/14 08:02:42;;;;;;;;;;;;;;;27.98;35.42;99553.06;5051709;28;2018;-56
2022/05/14 08:05:09;;;;;;;;;;;;;;;28.16;34.65;99545.91;5051717;28;807;-56
2022/05/14 08:07:37;;;;;;;;;;;;;;;28.64;34.24;99544.41;5051733;28;843;-56
2022/05/14 08:10:06;;;;;;;;;;;;;;;28.79;34.92;99549.66;5052255;28;812;-56
2022/05/14 08:24:45;;;;;;;;;;;;;;;30.90;33.15;99528.06;4990383;28;1059;-52
2022/05/14 08:27:12;;;;;;;;;;;;;;;30.68;32.80;99523.59;4990192;28;1045;-54
2022/05/14 08:29:39;;;;;;;;;;;;;;;30.46;32.36;99526.88;4990236;28;926;-54
2022/05/14 08:32:06;;;;;;;;;;;;;;;30.23;32.17;99532.97;4990198;28;811;-56
2022/05/14 08:34:32;;;;;;;;;;;;;;;30.64;32.05;99531.72;4989960;28;935;-53
2022/05/14 08:36:58;;;;;;;;;;;;;;;30.96;32.68;99530.81;4989993;28;908;-56
2022/05/14 08:39:28;;;;;;;;;;;;;;;30.80;32.58;99523.34;4989920;28;1474;-54
2022/05/14 08:41:57;;;;;;;;;;;;;;;30.32;33.06;99526.88;4990265;28;894;-54
2022/05/14 08:44:30;;;;;;;;;;;;;;;29.50;34.06;99531.34;4990019;28;1910;-53
2022/05/14 08:47:04;;;;;;;;;;;;;;;29.33;34.64;99534.44;4989931;28;828;-55
2022/05/14 08:49:41;;;;;;;;;;;;;;;28.86;34.75;99543.34;4989840;28;982;-56
2022/05/14 08:52:13;;;;;;;;;;;;;;;27.96;36.52;99528.03;4990053;28;862;-56
2022/05/14 08:54:40;;;;;;;;;;;;;;;27.38;38.03;99534.66;4989806;28;987;-55
2022/05/14 08:57:22;;;;;;;;;;;;;;;26.82;37.41;99532.09;4989889;28;859;-56
2022/05/14 08:59:55;;;;;;;;;;;;;;;26.65;39.61;99529.34;4989834;28;972;-56
2022/05/14 09:02:22;;;;;;;;;;;;;;;26.75;38.90;99529.81;5041239;28;1886;-56
2022/05/14 09:04:50;;;;;;;;;;;;;;;26.62;40.62;99536.06;5051059;28;803;-56
2022/05/14 09:07:17;;;;;;;;;;;;;;;26.75;39.90;99533.41;5051014;28;847;-55
2022/05/14 09:09:50;;;;;;;;;;;;;;;27.62;37.72;99544.56;5051092;28;807;-56
2022/05/14 09:12:19;;;;;;;;;;;;;;;28.47;37.46;99536.81;5050975;28;1567;-55
2022/05/14 09:14:46;;;;;;;;;;;;;;;29.20;34.81;99534.41;5050991;28;934;-55
2022/05/14 09:17:12;;;;;;;;;;;;;;;29.37;37.59;99528.47;5033473;28;848;-55
2022/05/14 09:19:43;;;;;;;;;;;;;;;29.77;37.11;99525.78;5051171;28;879;-55
2022/05/14 09:22:24;;;;;;;;;;;;;;;29.61;35.63;99527.56;5051394;28;850;-55
2022/05/14 09:24:54;;;;;;;;;;;;;;;29.28;36.33;99526.78;5052715;28;798;-53
2022/05/14 09:27:25;;;;;;;;;;;;;;;28.84;36.92;99529.66;5054775;28;988;-53
2022/05/14 09:29:54;;;;;;;;;;;;;;;28.98;36.81;99529.78;5037089;28;1483;-56
2022/05/14 09:32:21;;;;;;;;;;;;;;;29.34;36.40;99535.22;5054724;28;871;-55
2022/05/14 09:34:49;;;;;;;;;;;;;;;29.54;36.99;99526.13;5054537;28;819;-53
2022/05/14 09:37:19;;;;;;;;;;;;;;;29.69;37.42;99517.88;5054304;28;1256;-55
2022/05/14 09:40:00;;;;;;;;;;;;;;;29.51;37.42;99527.22;5054432;28;914;-55
2022/05/14 09:42:36;;;;;;;;;;;;;;;29.48;38.66;99520.50;5055010;28;1948;-56
2022/05/14 09:45:15;;;;;;;;;;;;;;;29.43;37.11;99527.06;5054321;28;1740;-55
2022/05/14 09:47:42;;;;;;;;;;;;;;;29.28;37.13;99521.84;5054742;28;830;-55
2022/05/14 09:50:16;;;;;;;;;;;;;;;28.82;37.32;99528.66;5054654;28;790;-55
2022/05/14 09:52:53;;;;;;;;;;;;;;;28.58;40.28;99533.09;5054280;28;858;-56
2022/05/14 09:55:21;;;;;;;;;;;;;;;28.43;38.04;99541.25;5054176;28;882;-56
2022/05/14 09:57:55;;;;;;;;;;;;;;;28.14;39.37;99540.75;5036171;28;1275;-56
2022/05/14 10:28:54;;;;;;;;;;;;;;;28.70;38.64;99540.19;5050500;28;1424;-57
2022/05/14 10:31:41;;;;;;;;;;;;;;;28.93;38.70;99534.19;5053543;28;806;-58
2022/05/14 10:34:12;;;;;;;;;;;;;;;29.18;38.06;99531.31;5053616;28;806;-58
2022/05/14 10:36:50;;;;;;;;;;;;;;;29.30;36.60;99530.63;5053064;28;884;-58
2022/05/14 10:39:32;;;;;;;;;;;;;;;29.27;37.87;99526.00;5053668;28;873;-58
2022/05/14 10:42:03;;;;;;;;;;;;;;;29.38;38.63;99521.44;5053353;28;834;-58
2022/05/14 10:44:49;;;;;;;;;;;;;;;29.59;37.93;99525.25;5035678;28;1910;-58
2022/05/14 10:47:17;;;;;;;;;;;;;;;30.02;37.71;99518.59;5053577;28;881;-57
2022/05/14 10:49:49;;;;;;;;;;;;;;;30.36;36.35;99505.81;5053424;28;857;-58
2022/05/14 10:52:16;;;;;;;;;;;;;;;30.32;35.50;99506.13;5053183;28;893;-57
2022/05/14 10:54:44;;;;;;;;;;;;;;;30.17;37.10;99508.75;5053227;28;878;-57
2022/05/14 10:57:14;;;;;;;;;;;;;;;30.07;36.83;99502.72;5053034;28;893;-58
2022/05/14 10:59:44;;;;;;;;;;;;;;;30.17;38.11;99505.91;5035015;28;1280;-57
2022/05/14 11:02:28;;;;;;;;;;;;;;;30.19;35.59;99506.88;5053033;28;834;-58
2022/05/14 11:04:55;;;;;;;;;;;;;;;29.95;36.20;99507.09;5052790;28;835;-58
2022/05/14 11:07:28;;;;;;;;;;;;;;;30.06;36.12;99504.78;5052844;28;830;-57
2022/05/14 11:10:06;;;;;;;;;;;;;;;30.52;34.31;99496.94;5052726;28;874;-57
2022/05/14 11:12:33;;;;;;;;;;;;;;;30.83;33.97;99499.41;5052722;28;850;-57
2022/05/14 11:15:01;;;;;;;;;;;;;;;31.02;35.07;99502.91;5052561;28;893;-58
2022/05/14 11:17:29;;;;;;;;;;;;;;;31.32;34.62;99498.84;5052523;28;898;-57
2022/05/14 11:20:11;;;;;;;;;;;;;;;31.52;35.27;99503.84;5052577;28;810;-57
2022/05/14 11:25:44;;;;;;;;;;;;;;;31.79;33.24;99494.34;5046265;28;1309;-58
2022/05/14 11:28:27;;;;;;;;;;;;;;;31.94;34.01;99491.59;5052363;28;1506;-58
2022/05/14 11:30:55;;;;;;;;;;;;;;;32.12;32.22;99490.63;5052269;28;927;-58
2022/05/14 11:33:25;;;;;;;;;;;;;;;32.23;31.88;99483.06;5052386;28;826;-58
2022/05/14 11:35:55;;;;;;;;;;;;;;;32.52;32.44;99484.56;5052228;28;806;-58
2022/05/14 11:38:25;;;;;;;;;;;;;;;32.80;31.96;99487.97;5053011;28;779;-58
2022/05/14 11:41:05;;;;;;;;;;;;;;;32.94;31.21;99480.75;5034338;28;704;-58
2022/05/14 11:43:38;;;;;;;;;;;;;;;33.03;30.75;99479.44;5052150;28;1910;-58
2022/05/14 11:46:05;;;;;;;;;;;;;;;33.02;30.98;99480.78;5052576;28;751;-58
2022/05/14 11:48:36;;;;;;;;;;;;;;;33.18;31.91;99482.41;5033678;28;889;-58
2022/05/14 11:51:11;;;;;;;;;;;;;;;33.16;30.91;99485.06;5052044;28;834;-58
2022/05/14 11:53:48;;;;;;;;;;;;;;;33.43;31.10;99476.88;5051949;28;853;-58
2022/05/14 11:56:35;;;;;;;;;;;;;;;33.86;29.87;99466.59;5052139;28;798;-58
2022/05/14 11:59:17;;;;;;;;;;;;;;;33.69;29.82;99467.19;5051978;28;1766;-58
2022/05/14 12:01:45;;;;;;;;;;;;;;;32.87;30.78;99465.09;5051858;28;803;-58
2022/05/14 12:16:28;;;;;;;;;;;;;;;34.65;27.64;99448.66;5051968;28;617;-57
2022/05/14 12:18:55;;;;;;;;;;;;;;;34.53;28.65;99451.19;5051615;28;921;-57
2022/05/14 12:21:22;;;;;;;;;;;;;;;34.60;28.25;99444.63;5051605;28;948;-58
2022/05/14 12:23:49;;;;;;;;;;;;;;;34.51;27.83;99446.00;5033757;28;1953;-57
2022/05/14 12:26:24;;;;;;;;;;;;;;;34.63;27.91;99446.38;5051433;28;1050;-58
2022/05/14 12:28:52;;;;;;;;;;;;;;;35.22;28.15;99441.47;5051261;28;1234;-58
2022/05/14 12:34:08;;;;;;;;;;;;;;;35.67;27.04;99434.63;5051765;28;604;-58
2022/05/14 12:36:35;;;;;;;;;;;;;;;35.94;26.24;99431.13;5051464;28;801;-59
2022/05/14 12:51:18;;;;;;;;;;;;;;;35.65;26.06;99433.69;5051618;28;616;-58
2022/05/14 12:53:44;;;;;;;;;;;;;;;34.85;27.76;99429.63;5051184;28;977;-58
2022/05/14 12:56:11;;;;;;;;;;;;;;;34.32;27.32;99423.53;5051121;28;806;-58
2022/05/14 12:58:39;;;;;;;;;;;;;;;33.97;27.60;99413.84;5052746;28;919;-58
2022/05/14 13:01:07;;;;;;;;;;;;;;;34.30;27.35;99414.72;5055049;28;927;-58
2022/05/14 13:03:39;;;;;;;;;;;;;;;34.92;26.89;99414.47;5055355;28;1902;-58
2022/05/14 13:06:12;;;;;;;;;;;;;;;34.62;27.63;99409.63;5055033;28;866;-58
2022/05/14 13:08:44;;;;;;;;;;;;;;;34.17;27.49;99409.22;5055400;28;790;-58
2022/05/14 13:11:15;;;;;;;;;;;;;;;34.10;27.38;99413.63;5055085;28;814;-58
2022/05/14 13:13:44;;;;;;;;;;;;;;;34.33;27.49;99416.44;5054963;28;790;-58
2022/05/14 13:16:32;;;;;;;;;;;;;;;34.90;26.50;99412.16;5054936;28;850;-58
2022/05/14 13:19:01;;;;;;;;;;;;;;;35.64;26.21;99407.06;5036963;28;1837;-59
2022/05/14 13:21:34;;;;;;;;;;;;;;;35.37;25.45;99399.03;5054985;28;979;-59
2022/05/14 13:24:03;;;;;;;;;;;;;;;35.34;27.01;99391.59;5054515;28;1894;-59
2022/05/14 13:26:46;;;;;;;;;;;;;;;34.77;26.57;99398.09;5054832;28;951;-58
2022/05/14 13:29:22;;;;;;;;;;;;;;;33.92;27.57;99397.59;5054542;28;1157;-58
2022/05/14 13:31:51;;;;;;;;;;;;;;;33.39;28.65;99404.88;5054669;28;830;-58
2022/05/14 13:37:35;;;;;;;;;;;;;;;33.09;29.16;99406.38;5054903;28;611;-58
2022/05/14 13:40:09;;;;;;;;;;;;;;;33.72;29.05;99396.50;5054426;28;934;-58
2022/05/14 13:42:44;;;;;;;;;;;;;;;34.07;27.37;99396.81;5036510;28;1976;-58
2022/05/14 13:45:20;;;;;;;;;;;;;;;33.76;27.90;99385.44;5054430;28;811;-59
2022/05/14 13:47:49;;;;;;;;;;;;;;;33.67;27.77;99389.66;5054332;28;845;-58
2022/05/14 13:50:23;;;;;;;;;;;;;;;33.93;27.56;99381.94;5054231;28;848;-58
2022/05/14 13:52:51;;;;;;;;;;;;;;;33.76;28.03;99380.44;5054255;28;1052;-58
2022/05/14 13:55:27;;;;;;;;;;;;;;;33.32;29.05;99380.66;5054052;28;854;-58
2022/05/14 13:57:59;;;;;;;;;;;;;;;32.89;29.61;99382.31;5054081;28;921;-59
2022/05/14 14:00:27;;;;;;;;;;;;;;;32.08;30.08;99378.00;5053993;28;854;-58
2022/05/14 14:03:06;;;;;;;;;;;;;;;31.10;32.68;99372.47;5053892;28;1944;-58
2022/05/14 14:05:33;;;;;;;;;;;;;;;30.09;33.15;99369.78;5053880;28;892;-58
2022/05/14 14:08:02;;;;;;;;;;;;;;;29.50;33.76;99378.38;5054094;28;823;-58
2022/05/14 14:10:33;;;;;;;;;;;;;;;29.31;33.25;99386.22;5053205;28;885;-58
2022/05/14 14:13:01;;;;;;;;;;;;;;;29.31;33.32;99381.31;5054121;28;937;-58
2022/05/14 14:15:29;;;;;;;;;;;;;;;29.26;33.28;99395.66;5053858;28;801;-58
2022/05/14 14:17:56;;;;;;;;;;;;;;;29.25;34.25;99399.78;5054087;28;843;-58
2022/05/14 14:20:22;;;;;;;;;;;;;;;29.23;33.27;99393.88;5053609;28;958;-58
2022/05/14 14:22:49;;;;;;;;;;;;;;;29.23;34.20;99402.41;5053552;28;1977;-58
2022/05/14 14:25:16;;;;;;;;;;;;;;;29.30;34.01;99396.84;5053685;28;790;-58
2022/05/14 14:27:42;;;;;;;;;;;;;;;29.32;35.02;99390.63;5053550;28;1378;-58
2022/05/14 14:30:10;;;;;;;;;;;;;;;29.02;35.01;99388.75;5035821;28;900;-58
2022/05/14 14:32:37;;;;;;;;;;;;;;;28.47;34.44;99391.09;5053407;28;826;-58
2022/05/14 14:35:05;;;;;;;;;;;;;;;27.79;33.74;99391.09;5053379;28;909;-58
2022/05/14 14:37:33;;;;;;;;;;;;;;;27.30;32.82;99389.00;5053525;28;888;-58
2022/05/14 14:39:59;;;;;;;;;;;;;;;27.08;33.79;99393.53;5035550;28;1701;-58
2022/05/14 14:42:29;;;;;;;;;;;;;;;26.83;35.34;99392.66;5053540;28;779;-58
2022/05/14 14:44:56;;;;;;;;;;;;;;;26.66;36.58;99389.19;5053437;28;923;-58
2022/05/14 14:47:23;;;;;;;;;;;;;;;26.58;36.99;99391.03;5053796;28;838;-58
2022/05/14 14:49:49;;;;;;;;;;;;;;;26.52;38.46;99393.09;5053443;28;1193;-58